Time;durP1;ratioP1;P1;durP2;ratioP2;P2;SDS_P1;SDS_P2;PMS_P1;PMS_P2;Temp;Humidity;BMP_temperature;BMP_pressure;BME280_temperature;BME280_humidity;BME280_pressure;Samples;Min_cycle;Max_cycle;Signal;HPM_P1;HPM_P2
2022/07/03 00:00:15;;;;;;;;;;;;;;;17.75;58.10;101618.09;5018426;28;19917;-93
2022/07/03 00:02:41;;;;;;;;;;;;;;;17.72;58.60;101619.13;5011334;28;19920;-93
2022/07/03 00:05:06;;;;;;;;;;;;;;;17.75;57.91;101618.97;5013692;28;20432;-93
2022/07/03 00:07:31;;;;;;;;;;;;;;;17.85;57.79;101617.47;5009169;28;20300;-92
2022/07/03 00:09:57;;;;;;;;;;;;;;;17.92;57.16;101617.13;5010901;28;19921;-93
2022/07/03 00:12:22;;;;;;;;;;;;;;;18.01;57.12;101621.94;5006249;28;19957;-93
2022/07/03 00:14:48;;;;;;;;;;;;;;;18.03;56.03;101618.22;5006288;28;19957;-92
2022/07/03 00:17:14;;;;;;;;;;;;;;;17.99;56.90;101615.81;5000277;28;19932;-92
2022/07/03 00:19:39;;;;;;;;;;;;;;;17.95;57.08;101625.84;5009021;28;20452;-93
2022/07/03 00:22:05;;;;;;;;;;;;;;;17.90;58.82;101617.19;4991252;28;19914;-92
2022/07/03 00:24:44;;;;;;;;;;;;;;;17.89;57.10;101620.84;5008880;28;20394;-93
2022/07/03 00:27:10;;;;;;;;;;;;;;;17.90;57.02;101621.69;5008777;28;20138;-93
2022/07/03 00:29:37;;;;;;;;;;;;;;;17.85;57.74;101636.19;5007978;28;20011;-93
2022/07/03 00:32:03;;;;;;;;;;;;;;;17.81;56.99;101631.09;5005491;28;19913;-92
2022/07/03 00:34:29;;;;;;;;;;;;;;;17.81;57.75;101648.06;5009934;28;19999;-93
2022/07/03 00:36:56;;;;;;;;;;;;;;;17.75;57.22;101645.72;5008290;28;19992;-93
2022/07/03 00:39:22;;;;;;;;;;;;;;;17.74;58.10;101649.34;5015815;28;19913;-93
2022/07/03 00:41:58;;;;;;;;;;;;;;;17.72;58.34;101651.22;5010671;28;19940;-93
2022/07/03 00:44:24;;;;;;;;;;;;;;;17.77;58.15;101656.34;5013037;28;20358;-92
2022/07/03 00:46:52;;;;;;;;;;;;;;;17.76;57.18;101660.81;5011090;28;20008;-93
2022/07/03 00:49:18;;;;;;;;;;;;;;;17.77;58.44;101643.81;5008092;28;19917;-93
2022/07/03 00:51:47;;;;;;;;;;;;;;;17.80;58.20;101645.44;5006089;28;19924;-93
2022/07/03 00:54:16;;;;;;;;;;;;;;;17.83;57.38;101653.31;4995881;28;19917;-92
2022/07/03 00:56:46;;;;;;;;;;;;;;;17.81;57.02;101650.72;5007913;28;19917;-93
2022/07/03 00:59:11;;;;;;;;;;;;;;;17.74;58.46;101646.66;5001322;28;20015;-92
2022/07/03 01:01:39;;;;;;;;;;;;;;;17.68;58.47;101646.13;4987977;28;20851;-93
2022/07/03 01:04:28;;;;;;;;;;;;;;;17.57;58.10;101646.72;5013855;28;19982;-92
2022/07/03 01:06:57;;;;;;;;;;;;;;;17.60;58.34;101650.09;5008839;28;19917;-92
2022/07/03 01:09:26;;;;;;;;;;;;;;;17.63;58.26;101641.03;5002477;28;20376;-92
2022/07/03 01:11:57;;;;;;;;;;;;;;;17.63;57.47;101637.50;4990888;28;19920;-92
2022/07/03 01:14:38;;;;;;;;;;;;;;;17.62;57.79;101641.97;5007409;28;19921;-93
2022/07/03 01:17:05;;;;;;;;;;;;;;;17.54;57.85;101639.75;5003811;28;19995;-93
2022/07/03 01:19:31;;;;;;;;;;;;;;;17.53;57.99;101651.41;5012340;28;19952;-93
2022/07/03 01:22:02;;;;;;;;;;;;;;;17.49;57.93;101652.53;5007815;28;19975;-92
2022/07/03 01:24:30;;;;;;;;;;;;;;;17.49;58.36;101649.00;4990636;28;19917;-91
2022/07/03 01:26:59;;;;;;;;;;;;;;;17.48;57.90;101649.91;5008167;28;19913;-91
2022/07/03 01:29:35;;;;;;;;;;;;;;;17.45;58.43;101656.31;5007881;28;20379;-92
2022/07/03 01:32:00;;;;;;;;;;;;;;;17.44;58.04;101654.59;5003132;28;20399;-91
2022/07/03 01:34:29;;;;;;;;;;;;;;;17.43;58.20;101654.66;5008046;28;19914;-92
2022/07/03 01:36:57;;;;;;;;;;;;;;;17.32;58.25;101653.44;5006579;28;20274;-92
2022/07/03 01:39:25;;;;;;;;;;;;;;;17.18;59.54;101650.69;5007135;28;20416;-93
2022/07/03 01:41:53;;;;;;;;;;;;;;;17.17;61.21;101648.09;5004400;28;20369;-92
2022/07/03 01:44:18;;;;;;;;;;;;;;;17.13;59.81;101649.22;5002748;28;19917;-92
2022/07/03 01:46:45;;;;;;;;;;;;;;;16.98;62.50;101642.91;5007862;28;20362;-92
2022/07/03 01:49:12;;;;;;;;;;;;;;;16.93;61.19;101645.81;5004050;28;19952;-92
2022/07/03 01:51:38;;;;;;;;;;;;;;;16.91;60.66;101646.81;5003455;28;20012;-92
2022/07/03 01:54:04;;;;;;;;;;;;;;;16.89;60.65;101654.06;5010688;28;20011;-92
2022/07/03 01:56:32;;;;;;;;;;;;;;;16.82;60.47;101661.53;5011286;28;19921;-92
2022/07/03 01:58:58;;;;;;;;;;;;;;;16.87;60.13;101658.63;4997940;28;20373;-93
2022/07/03 02:01:42;;;;;;;;;;;;;;;16.94;59.97;101657.38;5009115;28;19917;-92
2022/07/03 02:04:14;;;;;;;;;;;;;;;16.98;59.33;101645.56;5004564;28;19929;-92
2022/07/03 02:06:41;;;;;;;;;;;;;;;16.99;60.19;101644.63;5004583;28;19913;-92
2022/07/03 02:09:07;;;;;;;;;;;;;;;17.01;59.66;101645.38;5004992;28;20408;-93
2022/07/03 02:11:40;;;;;;;;;;;;;;;17.02;60.35;101642.66;5007285;28;19914;-92
2022/07/03 02:14:05;;;;;;;;;;;;;;;16.98;60.18;101642.91;4984180;28;20490;-92
2022/07/03 02:16:37;;;;;;;;;;;;;;;16.93;60.97;101640.47;4997245;28;19928;-92
2022/07/03 02:19:09;;;;;;;;;;;;;;;16.87;60.71;101631.91;5003610;28;20395;-92
2022/07/03 02:21:39;;;;;;;;;;;;;;;16.80;60.07;101626.91;5001971;28;20012;-91
2022/07/03 02:24:07;;;;;;;;;;;;;;;16.70;60.49;101633.66;5003434;28;19913;-92
2022/07/03 02:26:33;;;;;;;;;;;;;;;16.46;62.77;101637.59;5008383;28;19928;-91
2022/07/03 02:29:01;;;;;;;;;;;;;;;16.32;62.22;101633.84;5006641;28;19917;-92
2022/07/03 02:31:27;;;;;;;;;;;;;;;16.20;60.46;101637.16;5005318;28;20391;-92
2022/07/03 02:33:58;;;;;;;;;;;;;;;16.16;60.60;101632.03;5006575;28;19917;-91
2022/07/03 02:36:24;;;;;;;;;;;;;;;16.09;61.05;101642.16;5009549;28;20285;-91
2022/07/03 02:38:52;;;;;;;;;;;;;;;15.93;63.40;101638.53;5001202;28;19917;-91
2022/07/03 02:41:21;;;;;;;;;;;;;;;15.81;64.27;101640.88;5012142;28;19916;-91
2022/07/03 02:43:46;;;;;;;;;;;;;;;15.72;62.74;101641.34;5007374;28;20270;-91
2022/07/03 02:49:09;;;;;;;;;;;;;;;15.84;60.40;101641.66;5003199;28;19968;-91
2022/07/03 02:51:37;;;;;;;;;;;;;;;15.69;62.51;101638.81;5007013;28;20369;-91
2022/07/03 02:54:08;;;;;;;;;;;;;;;15.71;62.73;101638.72;5004227;28;19924;-91
2022/07/03 02:56:33;;;;;;;;;;;;;;;15.75;62.02;101643.81;5014297;28;19913;-91
2022/07/03 02:59:01;;;;;;;;;;;;;;;15.83;61.11;101640.78;5012021;28;19959;-91
2022/07/03 03:01:32;;;;;;;;;;;;;;;15.93;61.50;101636.72;5009766;28;20360;-91
2022/07/03 03:04:08;;;;;;;;;;;;;;;15.96;62.43;101631.25;5005665;28;19939;-92
2022/07/03 03:06:35;;;;;;;;;;;;;;;15.97;62.01;101637.44;5007657;28;20360;-91
2022/07/03 03:09:03;;;;;;;;;;;;;;;15.93;61.75;101635.88;5012598;28;20290;-91
2022/07/03 03:11:44;;;;;;;;;;;;;;;15.95;61.82;101631.34;5006760;28;20361;-91
2022/07/03 03:14:14;;;;;;;;;;;;;;;15.96;60.34;101625.06;5005100;28;19909;-91
2022/07/03 03:16:46;;;;;;;;;;;;;;;15.93;60.63;101638.53;5011090;28;19920;-91
2022/07/03 03:19:12;;;;;;;;;;;;;;;15.88;60.79;101637.91;5007300;28;19913;-91
2022/07/03 03:21:42;;;;;;;;;;;;;;;15.80;61.33;101639.13;5003114;28;19936;-91
2022/07/03 03:24:08;;;;;;;;;;;;;;;15.79;60.82;101650.75;5010517;28;19943;-91
2022/07/03 03:26:33;;;;;;;;;;;;;;;15.70;60.88;101639.66;5011732;28;19979;-91
2022/07/03 03:28:59;;;;;;;;;;;;;;;15.63;61.61;101641.75;5010181;28;19975;-91
2022/07/03 03:31:24;;;;;;;;;;;;;;;15.62;61.44;101650.69;5010321;28;20311;-91
2022/07/03 03:33:50;;;;;;;;;;;;;;;15.49;63.92;101654.88;5008498;28;20571;-91
2022/07/03 03:36:17;;;;;;;;;;;;;;;15.46;61.73;101652.34;5010561;28;19980;-91
2022/07/03 03:38:42;;;;;;;;;;;;;;;15.54;62.23;101652.84;5009616;28;20360;-91
2022/07/03 03:41:08;;;;;;;;;;;;;;;15.62;62.32;101650.69;5011267;28;19910;-91
2022/07/03 03:43:33;;;;;;;;;;;;;;;15.60;62.66;101647.22;5005238;28;20316;-91
2022/07/03 03:45:59;;;;;;;;;;;;;;;15.60;61.69;101654.34;5008761;28;20008;-91
2022/07/03 03:48:26;;;;;;;;;;;;;;;15.50;61.54;101659.25;5013977;28;20043;-91
2022/07/03 03:50:51;;;;;;;;;;;;;;;15.44;63.31;101656.88;5008843;28;19921;-91
2022/07/03 03:53:17;;;;;;;;;;;;;;;15.43;62.15;101653.34;5011081;28;19913;-92
2022/07/03 03:55:52;;;;;;;;;;;;;;;15.47;63.68;101654.91;5006357;28;19914;-91
2022/07/03 03:58:17;;;;;;;;;;;;;;;15.46;65.37;101653.19;5010480;28;19913;-91
2022/07/03 04:00:42;;;;;;;;;;;;;;;15.43;64.53;101655.13;5007206;28;20284;-91
2022/07/03 04:03:08;;;;;;;;;;;;;;;15.48;63.15;101659.34;5007746;28;19917;-91
2022/07/03 04:05:33;;;;;;;;;;;;;;;15.52;63.51;101654.69;5005584;28;19967;-91
2022/07/03 04:07:58;;;;;;;;;;;;;;;15.40;62.88;101645.50;5006445;28;20047;-91
2022/07/03 04:10:23;;;;;;;;;;;;;;;15.31;65.87;101649.47;5003459;28;20308;-91
2022/07/03 04:12:48;;;;;;;;;;;;;;;15.24;64.88;101655.13;5008612;28;19921;-91
2022/07/03 04:15:14;;;;;;;;;;;;;;;15.24;65.59;101650.66;4998512;28;19913;-91
2022/07/03 04:17:39;;;;;;;;;;;;;;;15.32;63.36;101650.31;5009879;28;20360;-91
2022/07/03 04:20:04;;;;;;;;;;;;;;;15.44;64.19;101649.75;5009575;28;19921;-91
2022/07/03 04:22:30;;;;;;;;;;;;;;;15.36;64.03;101651.06;4991902;28;20303;-91
2022/07/03 04:24:55;;;;;;;;;;;;;;;15.42;63.46;101656.94;5009555;28;19956;-91
2022/07/03 04:27:20;;;;;;;;;;;;;;;15.53;63.57;101659.97;5012685;28;19923;-90
2022/07/03 04:29:45;;;;;;;;;;;;;;;15.56;62.42;101659.81;5009583;28;20301;-91
2022/07/03 04:32:10;;;;;;;;;;;;;;;15.59;61.99;101652.63;5005957;28;20273;-91
2022/07/03 04:34:36;;;;;;;;;;;;;;;15.66;62.95;101662.94;5005602;28;19918;-91
2022/07/03 04:37:01;;;;;;;;;;;;;;;15.70;62.35;101663.66;5006965;28;19929;-92
2022/07/03 04:39:26;;;;;;;;;;;;;;;15.79;63.65;101673.88;5010145;28;19921;-92
2022/07/03 04:41:51;;;;;;;;;;;;;;;15.80;63.03;101672.94;5007426;28;20633;-91
2022/07/03 04:44:17;;;;;;;;;;;;;;;15.92;62.42;101676.81;5010208;28;19923;-92
2022/07/03 04:46:42;;;;;;;;;;;;;;;16.04;63.56;101674.41;5005946;28;20323;-92
2022/07/03 04:49:07;;;;;;;;;;;;;;;16.23;61.66;101674.34;5007886;28;20215;-91
2022/07/03 04:51:32;;;;;;;;;;;;;;;16.39;61.25;101670.91;5010579;28;19913;-92
2022/07/03 04:53:57;;;;;;;;;;;;;;;16.53;61.16;101674.56;5012302;28;19956;-92
2022/07/03 04:56:23;;;;;;;;;;;;;;;16.51;63.06;101684.47;5008873;28;19944;-92
2022/07/03 04:58:48;;;;;;;;;;;;;;;16.52;63.06;101680.00;5011932;28;19978;-92
2022/07/03 05:01:13;;;;;;;;;;;;;;;16.55;62.64;101669.16;5006396;28;20328;-91
2022/07/03 05:03:38;;;;;;;;;;;;;;;16.57;62.92;101678.81;5012307;28;19995;-92
2022/07/03 05:06:04;;;;;;;;;;;;;;;16.66;61.31;101674.81;4994138;28;20288;-92
2022/07/03 05:08:29;;;;;;;;;;;;;;;16.72;62.99;101684.34;5009966;28;20023;-92
2022/07/03 05:10:54;;;;;;;;;;;;;;;16.77;61.83;101684.94;5004780;28;20316;-92
2022/07/03 05:13:19;;;;;;;;;;;;;;;16.88;61.58;101677.25;5010495;28;20011;-92
2022/07/03 05:15:44;;;;;;;;;;;;;;;16.97;62.69;101675.88;5006586;28;21661;-91
2022/07/03 05:18:10;;;;;;;;;;;;;;;16.92;61.71;101686.81;5008536;28;19928;-92
2022/07/03 05:20:35;;;;;;;;;;;;;;;16.97;63.17;101683.88;5008862;28;19909;-92
2022/07/03 05:23:01;;;;;;;;;;;;;;;17.04;63.20;101680.81;5009536;28;19918;-92
2022/07/03 05:25:27;;;;;;;;;;;;;;;17.10;61.72;101687.63;5005444;28;20327;-92
2022/07/03 05:27:53;;;;;;;;;;;;;;;17.12;62.71;101685.75;5003014;28;19960;-92
2022/07/03 05:30:19;;;;;;;;;;;;;;;17.16;62.31;101690.00;5001163;28;19917;-92
2022/07/03 05:32:44;;;;;;;;;;;;;;;17.20;60.97;101685.31;5004962;28;20315;-92
2022/07/03 05:35:09;;;;;;;;;;;;;;;17.17;60.82;101689.03;5007748;28;20356;-92
2022/07/03 05:37:35;;;;;;;;;;;;;;;17.15;62.03;101685.56;4991364;28;19913;-92
2022/07/03 05:40:00;;;;;;;;;;;;;;;17.19;62.77;101691.63;5001935;28;19921;-92
2022/07/03 05:42:25;;;;;;;;;;;;;;;17.27;63.12;101686.72;5005975;28;19933;-93
2022/07/03 05:44:51;;;;;;;;;;;;;;;17.30;60.89;101692.78;5008501;28;19955;-92
2022/07/03 05:47:16;;;;;;;;;;;;;;;17.30;62.94;101700.78;5003605;28;20015;-93
2022/07/03 05:49:41;;;;;;;;;;;;;;;17.32;62.39;101698.03;5006596;28;19918;-92
2022/07/03 05:52:06;;;;;;;;;;;;;;;17.32;62.71;101698.88;5008471;28;19924;-92
2022/07/03 05:54:32;;;;;;;;;;;;;;;17.31;62.41;101707.88;5009378;28;19913;-92
2022/07/03 05:56:57;;;;;;;;;;;;;;;17.27;64.48;101697.41;5006346;28;19917;-92
2022/07/03 05:59:22;;;;;;;;;;;;;;;17.31;64.30;101699.84;5010809;28;19923;-92
2022/07/03 06:01:47;;;;;;;;;;;;;;;17.39;63.86;101690.53;5005940;28;19917;-92
2022/07/03 06:04:13;;;;;;;;;;;;;;;17.47;64.39;101696.31;5007533;28;20265;-92
2022/07/03 06:06:38;;;;;;;;;;;;;;;17.56;62.84;101704.69;5002968;28;20454;-92
2022/07/03 06:09:03;;;;;;;;;;;;;;;17.60;62.41;101700.03;5009719;28;19999;-93
2022/07/03 06:11:28;;;;;;;;;;;;;;;17.63;63.28;101705.22;5005603;28;19949;-92
2022/07/03 06:13:54;;;;;;;;;;;;;;;17.62;62.54;101707.97;4999818;28;19914;-93
2022/07/03 06:16:19;;;;;;;;;;;;;;;17.68;62.40;101713.84;5006201;28;20365;-93
2022/07/03 06:18:44;;;;;;;;;;;;;;;17.88;63.13;101709.22;5006328;28;20655;-93
2022/07/03 06:21:09;;;;;;;;;;;;;;;18.06;61.93;101708.16;5007395;28;19920;-93
2022/07/03 06:23:34;;;;;;;;;;;;;;;18.22;62.36;101722.38;5004323;28;19986;-92
2022/07/03 06:26:00;;;;;;;;;;;;;;;18.37;61.14;101701.88;4994581;28;20272;-90
2022/07/03 06:28:25;;;;;;;;;;;;;;;18.50;61.58;101713.56;5008281;28;19914;-92
2022/07/03 06:30:50;;;;;;;;;;;;;;;18.59;61.55;101717.53;5004411;28;20017;-93
2022/07/03 06:33:16;;;;;;;;;;;;;;;18.76;61.79;101712.06;5008906;28;19920;-92
2022/07/03 06:35:41;;;;;;;;;;;;;;;18.92;60.25;101711.13;5009038;28;19913;-92
2022/07/03 06:38:06;;;;;;;;;;;;;;;18.99;60.45;101705.28;5017195;28;19913;-92
2022/07/03 06:40:31;;;;;;;;;;;;;;;19.08;60.32;101719.94;5011794;28;19924;-92
2022/07/03 06:42:56;;;;;;;;;;;;;;;19.25;60.08;101714.38;5008452;28;20446;-92
2022/07/03 06:45:22;;;;;;;;;;;;;;;19.42;59.57;101720.50;5007581;28;19972;-90
2022/07/03 06:47:47;;;;;;;;;;;;;;;19.38;60.00;101712.66;5006868;28;20360;-93
2022/07/03 06:50:12;;;;;;;;;;;;;;;19.43;60.12;101720.41;5002033;28;20295;-92
2022/07/03 06:52:37;;;;;;;;;;;;;;;19.63;60.33;101711.13;5006447;28;19913;-92
2022/07/03 06:55:03;;;;;;;;;;;;;;;19.84;59.69;101706.19;5005605;28;19974;-91
2022/07/03 06:57:28;;;;;;;;;;;;;;;19.83;58.52;101718.75;5002578;28;19917;-92
2022/07/03 06:59:53;;;;;;;;;;;;;;;20.01;59.80;101719.38;5006855;28;20396;-91
2022/07/03 07:02:18;;;;;;;;;;;;;;;20.05;59.13;101707.47;5006198;28;19921;-93
2022/07/03 07:04:43;;;;;;;;;;;;;;;20.11;59.44;101715.13;5005845;28;19918;-92
2022/07/03 07:07:11;;;;;;;;;;;;;;;20.08;58.71;101712.63;5007242;28;19918;-92
2022/07/03 07:09:37;;;;;;;;;;;;;;;20.30;59.43;101716.56;5009455;28;20269;-93
2022/07/03 07:12:02;;;;;;;;;;;;;;;20.36;58.61;101716.16;4987628;28;19924;-91
2022/07/03 07:14:27;;;;;;;;;;;;;;;20.19;58.72;101717.31;5005484;28;19923;-91
2022/07/03 07:16:52;;;;;;;;;;;;;;;20.37;58.47;101716.03;5007769;28;19913;-91
2022/07/03 07:19:17;;;;;;;;;;;;;;;20.39;58.13;101722.19;5008877;28;19913;-90
2022/07/03 07:21:43;;;;;;;;;;;;;;;20.32;57.91;101720.00;5004990;28;19917;-90
2022/07/03 07:24:08;;;;;;;;;;;;;;;20.38;58.28;101719.63;5008705;28;20110;-90
2022/07/03 07:26:34;;;;;;;;;;;;;;;20.41;57.78;101716.69;5006194;28;19913;-91
2022/07/03 07:28:59;;;;;;;;;;;;;;;20.28;58.24;101718.47;5002092;28;19918;-90
2022/07/03 07:31:24;;;;;;;;;;;;;;;20.32;58.27;101715.50;5008996;28;19916;-90
2022/07/03 07:33:49;;;;;;;;;;;;;;;20.63;57.57;101724.22;5004869;28;19917;-90
2022/07/03 07:36:14;;;;;;;;;;;;;;;21.14;56.32;101730.47;5006441;28;20393;-91
2022/07/03 07:38:40;;;;;;;;;;;;;;;21.91;55.28;101725.81;5008525;28;19971;-90
2022/07/03 07:41:05;;;;;;;;;;;;;;;22.33;53.60;101736.22;5006809;28;19913;-92
2022/07/03 07:43:30;;;;;;;;;;;;;;;22.72;53.04;101732.34;5001804;28;20369;-91
2022/07/03 07:45:55;;;;;;;;;;;;;;;23.11;52.29;101735.63;5006623;28;19914;-91
2022/07/03 07:48:20;;;;;;;;;;;;;;;23.77;51.09;101733.06;4999284;28;20384;-91
2022/07/03 07:50:46;;;;;;;;;;;;;;;24.35;50.70;101729.09;5011876;28;19925;-91
2022/07/03 07:53:11;;;;;;;;;;;;;;;24.30;50.81;101734.03;5006089;28;19913;-90
2022/07/03 07:55:36;;;;;;;;;;;;;;;24.01;50.52;101730.16;5009064;28;19936;-90
2022/07/03 07:58:02;;;;;;;;;;;;;;;24.46;49.29;101735.47;4991647;28;19913;-90
2022/07/03 08:00:27;;;;;;;;;;;;;;;24.93;48.28;101742.19;5005154;28;19914;-92
2022/07/03 08:05:37;;;;;;;;;;;;;;;25.86;45.38;101733.97;5008858;28;19936;-91
2022/07/03 08:08:02;;;;;;;;;;;;;;;26.28;45.02;101735.59;5008132;28;19921;-91
2022/07/03 08:10:28;;;;;;;;;;;;;;;26.36;44.75;101738.44;5002354;28;19917;-92
2022/07/03 08:12:53;;;;;;;;;;;;;;;26.40;43.12;101734.47;5006254;28;19967;-91
2022/07/03 08:15:18;;;;;;;;;;;;;;;26.18;45.13;101738.28;5013248;28;19920;-90
2022/07/03 08:17:43;;;;;;;;;;;;;;;26.50;43.68;101735.34;5010414;28;19933;-92
2022/07/03 08:20:09;;;;;;;;;;;;;;;26.78;44.02;101739.03;5010373;28;19921;-92
2022/07/03 08:22:34;;;;;;;;;;;;;;;27.03;42.78;101740.25;5006615;28;19952;-91
2022/07/03 08:24:59;;;;;;;;;;;;;;;27.17;42.56;101739.78;5008548;28;19917;-91
2022/07/03 08:27:24;;;;;;;;;;;;;;;27.51;43.02;101747.38;5009660;28;20009;-91
2022/07/03 08:29:49;;;;;;;;;;;;;;;27.83;42.37;101738.81;5013851;28;19952;-91
2022/07/03 08:32:15;;;;;;;;;;;;;;;28.11;39.93;101747.78;4990585;28;19920;-91
2022/07/03 08:34:40;;;;;;;;;;;;;;;27.89;40.21;101737.34;5010564;28;19987;-91
2022/07/03 08:37:05;;;;;;;;;;;;;;;28.19;41.66;101736.97;5009443;28;20289;-91
2022/07/03 08:39:30;;;;;;;;;;;;;;;28.48;40.84;101735.91;5013034;28;19928;-91
2022/07/03 08:41:56;;;;;;;;;;;;;;;27.88;41.24;101739.19;5007462;28;20399;-91
2022/07/03 08:44:22;;;;;;;;;;;;;;;28.15;41.02;101735.59;5006941;28;20333;-92
2022/07/03 08:46:48;;;;;;;;;;;;;;;28.15;39.11;101721.13;5012374;28;20371;-91
2022/07/03 08:49:14;;;;;;;;;;;;;;;27.69;39.61;101742.00;5009390;28;20485;-91
2022/07/03 08:51:40;;;;;;;;;;;;;;;27.66;40.38;101729.59;4991958;28;19913;-92
2022/07/03 08:54:06;;;;;;;;;;;;;;;27.69;40.25;101736.56;5007067;28;19917;-91
2022/07/03 08:56:32;;;;;;;;;;;;;;;27.71;41.02;101740.00;5009105;28;20291;-92
2022/07/03 08:58:58;;;;;;;;;;;;;;;28.01;40.35;101737.97;5008833;28;19910;-92
2022/07/03 09:01:24;;;;;;;;;;;;;;;27.12;41.54;101731.25;5008186;28;19924;-91
2022/07/03 09:03:50;;;;;;;;;;;;;;;26.93;42.57;101737.56;5013549;28;20417;-91
2022/07/03 09:06:16;;;;;;;;;;;;;;;27.16;42.00;101731.81;5003500;28;19957;-92
2022/07/03 09:08:43;;;;;;;;;;;;;;;27.23;42.41;101727.47;5014511;28;19917;-92
2022/07/03 09:11:08;;;;;;;;;;;;;;;27.33;42.43;101733.75;5005749;28;19929;-92
2022/07/03 09:13:34;;;;;;;;;;;;;;;27.48;41.92;101731.41;5009267;28;20181;-92
2022/07/03 09:15:59;;;;;;;;;;;;;;;27.49;40.63;101737.69;5010129;28;20019;-93
2022/07/03 09:18:41;;;;;;;;;;;;;;;27.14;41.77;101733.81;5006579;28;20392;-92
2022/07/03 09:21:08;;;;;;;;;;;;;;;27.03;42.16;101731.25;5010178;28;19921;-93
2022/07/03 09:23:40;;;;;;;;;;;;;;;27.01;42.12;101725.97;5007188;28;19921;-93
2022/07/03 09:26:06;;;;;;;;;;;;;;;26.56;42.92;101734.75;5004082;28;19924;-92
2022/07/03 09:28:46;;;;;;;;;;;;;;;26.66;42.76;101737.44;5007874;28;20364;-92
2022/07/03 09:31:12;;;;;;;;;;;;;;;26.49;43.12;101730.91;5010205;28;19932;-92
2022/07/03 09:33:50;;;;;;;;;;;;;;;26.35;43.23;101737.59;5006820;28;19914;-91
2022/07/03 09:36:15;;;;;;;;;;;;;;;26.71;42.68;101738.72;5005061;28;20360;-92
2022/07/03 09:38:44;;;;;;;;;;;;;;;26.91;42.76;101742.28;5009078;28;19962;-92
2022/07/03 09:41:10;;;;;;;;;;;;;;;26.77;42.06;101742.75;5001109;28;20449;-92
2022/07/03 09:43:40;;;;;;;;;;;;;;;26.89;42.20;101754.28;5003285;28;20015;-92
2022/07/03 09:46:05;;;;;;;;;;;;;;;27.45;41.60;101745.28;5003982;28;20340;-92
2022/07/03 09:48:31;;;;;;;;;;;;;;;27.25;40.43;101755.38;5007980;28;19921;-92
2022/07/03 09:51:12;;;;;;;;;;;;;;;27.18;42.17;101749.66;5004097;28;20383;-93
2022/07/03 09:53:51;;;;;;;;;;;;;;;27.44;41.38;101752.56;5004807;28;19917;-93
2022/07/03 09:56:20;;;;;;;;;;;;;;;27.44;41.66;101755.28;5003867;28;19917;-92
2022/07/03 09:59:02;;;;;;;;;;;;;;;27.55;41.31;101748.78;5007367;28;20385;-92
2022/07/03 10:01:28;;;;;;;;;;;;;;;27.65;40.38;101751.47;5005834;28;20369;-92
2022/07/03 10:03:54;;;;;;;;;;;;;;;27.70;41.38;101754.59;5005004;28;19917;-93
2022/07/03 10:06:19;;;;;;;;;;;;;;;27.72;41.16;101752.63;5005812;28;20011;-93
2022/07/03 10:08:45;;;;;;;;;;;;;;;27.68;40.36;101757.44;5007452;28;19928;-94
2022/07/03 10:11:11;;;;;;;;;;;;;;;27.71;40.10;101754.47;5005993;28;19921;-94
2022/07/03 10:13:39;;;;;;;;;;;;;;;27.64;39.77;101760.63;5006957;28;19955;-93
2022/07/03 10:16:06;;;;;;;;;;;;;;;27.29;38.04;101745.06;5002460;28;20013;-93
2022/07/03 10:18:34;;;;;;;;;;;;;;;26.54;41.41;101749.47;5002256;28;19917;-94
2022/07/03 10:21:01;;;;;;;;;;;;;;;27.02;40.60;101746.69;5005085;28;19917;-93
2022/07/03 10:23:26;;;;;;;;;;;;;;;27.56;39.64;101758.69;5005841;28;19913;-94
2022/07/03 10:25:52;;;;;;;;;;;;;;;27.84;38.86;101762.28;5008867;28;19921;-93
2022/07/03 10:28:18;;;;;;;;;;;;;;;27.73;38.48;101750.75;5006781;28;19913;-95
2022/07/03 10:30:44;;;;;;;;;;;;;;;27.44;39.25;101752.56;5004227;28;19980;-93
2022/07/03 10:33:09;;;;;;;;;;;;;;;27.31;39.78;101764.75;5007909;28;19967;-93
2022/07/03 10:35:37;;;;;;;;;;;;;;;27.10;39.83;101762.28;5006394;28;19917;-93
2022/07/03 10:38:02;;;;;;;;;;;;;;;26.87;40.84;101757.16;5004494;28;19917;-93
2022/07/03 10:46:08;;;;;;;;;;;;;;;26.25;41.24;101771.97;5007291;28;19967;-94
2022/07/03 10:48:52;;;;;;;;;;;;;;;26.02;41.60;101767.78;5005574;28;19913;-93
2022/07/03 10:51:18;;;;;;;;;;;;;;;25.91;41.24;101777.75;5007983;28;19921;-92
2022/07/03 10:53:43;;;;;;;;;;;;;;;25.84;41.85;101763.06;5006551;28;19963;-92
2022/07/03 10:56:08;;;;;;;;;;;;;;;26.07;41.54;101766.38;5006731;28;19917;-92
2022/07/03 10:58:54;;;;;;;;;;;;;;;26.27;41.15;101769.13;5004008;28;19922;-93
2022/07/03 11:01:45;;;;;;;;;;;;;;;26.24;41.31;101766.69;5000365;28;20376;-93
2022/07/03 11:04:11;;;;;;;;;;;;;;;25.78;40.90;101757.31;4980306;28;19957;-92
2022/07/03 11:06:42;;;;;;;;;;;;;;;26.20;41.12;101760.69;4984405;28;19960;-93
2022/07/03 11:09:08;;;;;;;;;;;;;;;26.67;39.97;101759.03;4990324;28;19941;-92
2022/07/03 11:11:55;;;;;;;;;;;;;;;26.48;40.43;101763.59;4986286;28;19914;-93
2022/07/03 11:14:21;;;;;;;;;;;;;;;26.24;40.06;101766.69;4994702;28;19914;-93
2022/07/03 11:16:46;;;;;;;;;;;;;;;26.55;40.63;101773.72;4994763;28;19918;-93
2022/07/03 11:19:12;;;;;;;;;;;;;;;26.69;40.52;101764.31;5000719;28;19928;-93
2022/07/03 11:21:41;;;;;;;;;;;;;;;26.45;40.15;101757.47;4986590;28;19913;-93
2022/07/03 11:24:06;;;;;;;;;;;;;;;26.58;40.37;101750.88;5008967;28;19921;-94
2022/07/03 11:26:32;;;;;;;;;;;;;;;27.10;39.49;101752.28;4991799;28;20000;-95
2022/07/03 11:28:58;;;;;;;;;;;;;;;27.69;39.53;101750.16;5003751;28;19917;-94
2022/07/03 11:31:23;;;;;;;;;;;;;;;28.22;38.64;101744.84;4987800;28;20429;-93
2022/07/03 11:33:51;;;;;;;;;;;;;;;28.51;37.81;101745.66;4988655;28;19956;-94
2022/07/03 11:36:16;;;;;;;;;;;;;;;28.13;38.07;101734.91;4988125;28;19917;-93
2022/07/03 11:39:05;;;;;;;;;;;;;;;27.95;38.28;101740.31;4988092;28;19928;-94
2022/07/03 11:41:36;;;;;;;;;;;;;;;27.68;38.76;101743.00;4996097;28;19914;-93
2022/07/03 11:44:03;;;;;;;;;;;;;;;27.50;38.70;101745.66;4993435;28;19917;-94
2022/07/03 11:46:29;;;;;;;;;;;;;;;27.77;37.90;101739.41;4987126;28;19921;-93
2022/07/03 11:49:04;;;;;;;;;;;;;;;28.02;36.90;101726.09;4992335;28;19913;-94
2022/07/03 11:51:29;;;;;;;;;;;;;;;28.29;36.69;101726.03;5006227;28;19935;-94
2022/07/03 11:53:54;;;;;;;;;;;;;;;28.43;37.18;101728.22;4988019;28;19913;-93
2022/07/03 11:56:19;;;;;;;;;;;;;;;28.04;37.50;101737.69;4990070;28;19967;-93
2022/07/03 11:58:46;;;;;;;;;;;;;;;27.71;38.03;101746.31;4990627;28;19917;-93
2022/07/03 12:01:31;;;;;;;;;;;;;;;27.71;38.56;101742.72;5003880;28;19917;-93
2022/07/03 12:04:14;;;;;;;;;;;;;;;27.71;38.61;101749.03;5005824;28;20317;-93
2022/07/03 12:06:42;;;;;;;;;;;;;;;27.77;38.34;101739.41;5004548;28;19928;-93
2022/07/03 12:09:14;;;;;;;;;;;;;;;28.27;37.40;101738.94;5009206;28;20330;-95
2022/07/03 12:11:39;;;;;;;;;;;;;;;28.01;36.66;101743.41;5007288;28;19917;-95
2022/07/03 12:14:04;;;;;;;;;;;;;;;27.50;37.86;101740.25;5002879;28;19968;-93
2022/07/03 12:16:33;;;;;;;;;;;;;;;27.24;38.93;101748.22;5006898;28;19925;-94
2022/07/03 12:19:03;;;;;;;;;;;;;;;26.91;39.21;101742.28;5006005;28;19913;-93
2022/07/03 12:21:34;;;;;;;;;;;;;;;26.53;39.41;101739.59;5006649;28;20383;-94
2022/07/03 12:24:00;;;;;;;;;;;;;;;26.64;39.45;101739.47;5008284;28;19921;-93
2022/07/03 12:26:28;;;;;;;;;;;;;;;26.57;39.67;101741.03;5004114;28;19929;-93
2022/07/03 12:28:54;;;;;;;;;;;;;;;26.47;39.19;101743.75;4987930;28;19917;-93
2022/07/03 12:31:19;;;;;;;;;;;;;;;26.33;39.33;101745.00;5012093;28;19924;-93
2022/07/03 12:33:45;;;;;;;;;;;;;;;26.81;39.06;101737.84;5010382;28;20364;-92
2022/07/03 12:36:10;;;;;;;;;;;;;;;27.06;38.46;101730.97;5010404;28;20644;-93
2022/07/03 12:38:36;;;;;;;;;;;;;;;27.51;36.45;101741.09;5006210;28;19920;-92
2022/07/03 12:41:05;;;;;;;;;;;;;;;27.02;37.10;101735.81;5004666;28;19928;-93
2022/07/03 12:43:40;;;;;;;;;;;;;;;26.62;37.39;101745.00;4990189;28;20409;-93
2022/07/03 12:46:23;;;;;;;;;;;;;;;26.27;37.05;101736.59;5008729;28;19972;-94